sensor_id;sensor_type;location;lat;lon;timestamp;P1;durP1;ratioP1;P2;durP2;ratioP2
64894;SDS011;51588;53.702;10.208;2023-04-24T00:00:17;3.63;;;2.60;;
64894;SDS011;51588;53.702;10.208;2023-04-24T00:02:44;3.13;;;2.93;;
64894;SDS011;51588;53.702;10.208;2023-04-24T00:05:12;3.37;;;3.07;;
64894;SDS011;51588;53.702;10.208;2023-04-24T00:07:38;3.00;;;2.70;;
64894;SDS011;51588;53.702;10.208;2023-04-24T00:10:05;3.20;;;2.97;;
64894;SDS011;51588;53.702;10.208;2023-04-24T00:12:32;3.40;;;3.10;;
64894;SDS011;51588;53.702;10.208;2023-04-24T00:15:00;3.30;;;3.00;;
64894;SDS011;51588;53.702;10.208;2023-04-24T00:17:27;2.93;;;2.73;;
64894;SDS011;51588;53.702;10.208;2023-04-24T00:19:53;3.23;;;2.97;;
64894;SDS011;51588;53.702;10.208;2023-04-24T00:22:23;2.80;;;2.60;;
64894;SDS011;51588;53.702;10.208;2023-04-24T00:24:50;3.30;;;3.00;;
64894;SDS011;51588;53.702;10.208;2023-04-24T00:27:16;3.20;;;2.90;;
64894;SDS011;51588;53.702;10.208;2023-04-24T00:29:42;3.17;;;2.87;;
64894;SDS011;51588;53.702;10.208;2023-04-24T00:32:10;3.20;;;2.90;;
64894;SDS011;51588;53.702;10.208;2023-04-24T00:34:36;3.10;;;2.63;;
64894;SDS011;51588;53.702;10.208;2023-04-24T00:37:03;2.50;;;2.30;;
64894;SDS011;51588;53.702;10.208;2023-04-24T00:39:30;4.83;;;2.70;;
64894;SDS011;51588;53.702;10.208;2023-04-24T00:41:56;3.20;;;2.90;;
64894;SDS011;51588;53.702;10.208;2023-04-24T00:44:23;3.50;;;3.20;;
64894;SDS011;51588;53.702;10.208;2023-04-24T00:46:49;3.40;;;2.73;;
64894;SDS011;51588;53.702;10.208;2023-04-24T00:49:21;3.07;;;2.87;;
64894;SDS011;51588;53.702;10.208;2023-04-24T00:51:47;3.13;;;2.87;;
64894;SDS011;51588;53.702;10.208;2023-04-24T00:54:14;2.70;;;2.50;;
64894;SDS011;51588;53.702;10.208;2023-04-24T00:56:41;3.10;;;2.83;;
64894;SDS011;51588;53.702;10.208;2023-04-24T00:59:07;2.93;;;2.73;;
64894;SDS011;51588;53.702;10.208;2023-04-24T01:01:34;3.33;;;3.03;;
64894;SDS011;51588;53.702;10.208;2023-04-24T01:04:01;3.20;;;2.90;;
64894;SDS011;51588;53.702;10.208;2023-04-24T01:06:29;3.20;;;2.90;;
64894;SDS011;51588;53.702;10.208;2023-04-24T01:08:56;3.07;;;2.87;;
64894;SDS011;51588;53.702;10.208;2023-04-24T01:11:23;3.07;;;2.87;;
64894;SDS011;51588;53.702;10.208;2023-04-24T01:13:50;2.90;;;2.70;;
64894;SDS011;51588;53.702;10.208;2023-04-24T01:16:17;3.23;;;2.93;;
64894;SDS011;51588;53.702;10.208;2023-04-24T01:18:45;3.70;;;3.30;;
64894;SDS011;51588;53.702;10.208;2023-04-24T01:21:12;3.40;;;3.10;;
64894;SDS011;51588;53.702;10.208;2023-04-24T01:23:41;2.93;;;2.73;;
64894;SDS011;51588;53.702;10.208;2023-04-24T01:26:07;3.30;;;3.00;;
64894;SDS011;51588;53.702;10.208;2023-04-24T01:28:34;3.27;;;2.97;;
64894;SDS011;51588;53.702;10.208;2023-04-24T01:31:00;3.23;;;2.93;;
64894;SDS011;51588;53.702;10.208;2023-04-24T01:33:27;3.00;;;2.80;;
64894;SDS011;51588;53.702;10.208;2023-04-24T01:35:53;3.10;;;2.90;;
64894;SDS011;51588;53.702;10.208;2023-04-24T01:38:20;3.30;;;3.00;;
64894;SDS011;51588;53.702;10.208;2023-04-24T01:40:48;3.50;;;2.77;;
64894;SDS011;51588;53.702;10.208;2023-04-24T01:43:15;3.20;;;2.90;;
64894;SDS011;51588;53.702;10.208;2023-04-24T01:45:41;3.40;;;3.10;;
64894;SDS011;51588;53.702;10.208;2023-04-24T01:48:08;3.07;;;2.87;;
64894;SDS011;51588;53.702;10.208;2023-04-24T01:50:34;3.00;;;2.80;;
64894;SDS011;51588;53.702;10.208;2023-04-24T01:53:01;3.03;;;2.83;;
64894;SDS011;51588;53.702;10.208;2023-04-24T01:55:27;3.00;;;2.80;;
64894;SDS011;51588;53.702;10.208;2023-04-24T01:57:55;3.27;;;2.70;;
64894;SDS011;51588;53.702;10.208;2023-04-24T02:00:22;3.63;;;3.20;;
64894;SDS011;51588;53.702;10.208;2023-04-24T02:02:49;4.20;;;3.10;;
64894;SDS011;51588;53.702;10.208;2023-04-24T02:05:15;3.57;;;3.17;;
64894;SDS011;51588;53.702;10.208;2023-04-24T02:07:41;3.20;;;2.90;;
64894;SDS011;51588;53.702;10.208;2023-04-24T02:10:08;3.30;;;3.00;;
64894;SDS011;51588;53.702;10.208;2023-04-24T02:12:35;3.33;;;3.03;;
64894;SDS011;51588;53.702;10.208;2023-04-24T02:15:03;3.37;;;3.10;;
64894;SDS011;51588;53.702;10.208;2023-04-24T02:17:30;3.23;;;2.93;;
64894;SDS011;51588;53.702;10.208;2023-04-24T02:19:56;3.20;;;2.90;;
64894;SDS011;51588;53.702;10.208;2023-04-24T02:22:23;3.10;;;2.90;;
64894;SDS011;51588;53.702;10.208;2023-04-24T02:24:49;3.27;;;2.97;;
64894;SDS011;51588;53.702;10.208;2023-04-24T02:27:16;3.13;;;2.93;;
64894;SDS011;51588;53.702;10.208;2023-04-24T02:29:42;2.90;;;2.60;;
64894;SDS011;51588;53.702;10.208;2023-04-24T02:32:10;2.50;;;2.30;;
64894;SDS011;51588;53.702;10.208;2023-04-24T02:34:40;2.90;;;2.70;;
64894;SDS011;51588;53.702;10.208;2023-04-24T02:37:06;3.13;;;2.93;;
64894;SDS011;51588;53.702;10.208;2023-04-24T02:39:33;3.00;;;2.80;;
64894;SDS011;51588;53.702;10.208;2023-04-24T02:41:59;3.10;;;2.90;;
64894;SDS011;51588;53.702;10.208;2023-04-24T02:44:26;3.07;;;2.70;;
64894;SDS011;51588;53.702;10.208;2023-04-24T02:46:53;2.80;;;2.60;;
64894;SDS011;51588;53.702;10.208;2023-04-24T02:49:20;3.33;;;3.03;;
64894;SDS011;51588;53.702;10.208;2023-04-24T02:51:47;3.20;;;2.90;;
64894;SDS011;51588;53.702;10.208;2023-04-24T02:54:13;2.50;;;2.30;;
64894;SDS011;51588;53.702;10.208;2023-04-24T02:56:39;3.10;;;2.90;;
64894;SDS011;51588;53.702;10.208;2023-04-24T02:59:06;4.20;;;2.87;;
64894;SDS011;51588;53.702;10.208;2023-04-24T03:01:32;2.90;;;2.70;;
64894;SDS011;51588;53.702;10.208;2023-04-24T03:03:59;3.07;;;2.80;;
64894;SDS011;51588;53.702;10.208;2023-04-24T03:06:26;2.80;;;2.60;;
64894;SDS011;51588;53.702;10.208;2023-04-24T03:08:53;2.60;;;2.40;;
64894;SDS011;51588;53.702;10.208;2023-04-24T03:11:19;2.53;;;2.33;;
64894;SDS011;51588;53.702;10.208;2023-04-24T03:13:46;3.00;;;2.80;;
64894;SDS011;51588;53.702;10.208;2023-04-24T03:16:12;3.63;;;3.33;;
64894;SDS011;51588;53.702;10.208;2023-04-24T03:18:38;2.77;;;2.57;;
64894;SDS011;51588;53.702;10.208;2023-04-24T03:21:05;3.10;;;2.90;;
64894;SDS011;51588;53.702;10.208;2023-04-24T03:23:32;2.70;;;2.50;;
64894;SDS011;51588;53.702;10.208;2023-04-24T03:25:59;2.70;;;2.50;;
64894;SDS011;51588;53.702;10.208;2023-04-24T03:28:25;3.00;;;2.70;;
64894;SDS011;51588;53.702;10.208;2023-04-24T03:30:52;2.90;;;2.57;;
64894;SDS011;51588;53.702;10.208;2023-04-24T03:33:18;2.70;;;2.50;;
64894;SDS011;51588;53.702;10.208;2023-04-24T03:35:45;2.80;;;2.50;;
64894;SDS011;51588;53.702;10.208;2023-04-24T03:38:11;2.70;;;2.50;;
64894;SDS011;51588;53.702;10.208;2023-04-24T03:40:39;2.90;;;2.70;;
64894;SDS011;51588;53.702;10.208;2023-04-24T03:43:05;2.70;;;2.50;;
64894;SDS011;51588;53.702;10.208;2023-04-24T03:45:31;2.83;;;2.63;;
64894;SDS011;51588;53.702;10.208;2023-04-24T03:47:58;2.60;;;2.40;;
64894;SDS011;51588;53.702;10.208;2023-04-24T03:50:24;2.47;;;2.27;;
64894;SDS011;51588;53.702;10.208;2023-04-24T03:52:51;2.50;;;2.30;;
64894;SDS011;51588;53.702;10.208;2023-04-24T03:55:18;2.50;;;2.30;;
64894;SDS011;51588;53.702;10.208;2023-04-24T03:57:46;2.83;;;2.63;;
64894;SDS011;51588;53.702;10.208;2023-04-24T04:00:12;2.90;;;2.70;;
64894;SDS011;51588;53.702;10.208;2023-04-24T04:02:39;2.40;;;2.20;;
64894;SDS011;51588;53.702;10.208;2023-04-24T04:05:05;2.50;;;2.30;;
64894;SDS011;51588;53.702;10.208;2023-04-24T04:07:33;2.37;;;2.17;;
64894;SDS011;51588;53.702;10.208;2023-04-24T04:09:59;2.60;;;2.40;;
64894;SDS011;51588;53.702;10.208;2023-04-24T04:12:25;2.87;;;2.57;;
64894;SDS011;51588;53.702;10.208;2023-04-24T04:14:53;3.33;;;2.67;;
64894;SDS011;51588;53.702;10.208;2023-04-24T04:17:19;2.97;;;2.77;;
64894;SDS011;51588;53.702;10.208;2023-04-24T04:19:46;2.40;;;2.20;;
64894;SDS011;51588;53.702;10.208;2023-04-24T04:22:15;2.10;;;2.00;;
64894;SDS011;51588;53.702;10.208;2023-04-24T04:24:42;2.20;;;2.10;;
64894;SDS011;51588;53.702;10.208;2023-04-24T04:27:09;2.87;;;2.20;;
64894;SDS011;51588;53.702;10.208;2023-04-24T04:29:36;2.40;;;2.20;;
64894;SDS011;51588;53.702;10.208;2023-04-24T04:32:03;2.60;;;2.40;;
64894;SDS011;51588;53.702;10.208;2023-04-24T04:34:30;2.40;;;2.20;;
64894;SDS011;51588;53.702;10.208;2023-04-24T04:36:56;2.47;;;2.27;;
64894;SDS011;51588;53.702;10.208;2023-04-24T04:39:24;2.03;;;1.93;;
64894;SDS011;51588;53.702;10.208;2023-04-24T04:41:51;2.33;;;2.13;;
64894;SDS011;51588;53.702;10.208;2023-04-24T04:44:18;2.30;;;2.10;;
64894;SDS011;51588;53.702;10.208;2023-04-24T04:46:44;2.23;;;2.03;;
64894;SDS011;51588;53.702;10.208;2023-04-24T04:49:12;2.43;;;2.20;;
64894;SDS011;51588;53.702;10.208;2023-04-24T04:51:41;2.30;;;2.10;;
64894;SDS011;51588;53.702;10.208;2023-04-24T04:54:08;2.20;;;2.00;;
64894;SDS011;51588;53.702;10.208;2023-04-24T04:56:34;2.00;;;1.80;;
64894;SDS011;51588;53.702;10.208;2023-04-24T04:59:01;2.00;;;1.80;;
64894;SDS011;51588;53.702;10.208;2023-04-24T05:01:27;2.50;;;2.30;;
64894;SDS011;51588;53.702;10.208;2023-04-24T05:03:53;2.10;;;1.97;;
64894;SDS011;51588;53.702;10.208;2023-04-24T05:06:21;2.20;;;2.10;;
64894;SDS011;51588;53.702;10.208;2023-04-24T05:08:48;1.70;;;1.60;;
64894;SDS011;51588;53.702;10.208;2023-04-24T05:11:14;1.80;;;1.70;;
64894;SDS011;51588;53.702;10.208;2023-04-24T05:13:41;1.70;;;1.60;;
64894;SDS011;51588;53.702;10.208;2023-04-24T05:16:07;2.10;;;1.97;;
64894;SDS011;51588;53.702;10.208;2023-04-24T05:18:33;1.80;;;1.70;;
64894;SDS011;51588;53.702;10.208;2023-04-24T05:21:00;2.57;;;1.60;;
64894;SDS011;51588;53.702;10.208;2023-04-24T05:23:28;3.20;;;1.60;;
64894;SDS011;51588;53.702;10.208;2023-04-24T05:25:54;4.27;;;1.70;;
64894;SDS011;51588;53.702;10.208;2023-04-24T05:28:20;2.00;;;1.80;;
64894;SDS011;51588;53.702;10.208;2023-04-24T05:30:47;2.90;;;1.70;;
64894;SDS011;51588;53.702;10.208;2023-04-24T05:33:13;2.03;;;1.60;;
64894;SDS011;51588;53.702;10.208;2023-04-24T05:35:40;2.30;;;1.70;;
64894;SDS011;51588;53.702;10.208;2023-04-24T05:38:10;2.13;;;1.53;;
64894;SDS011;51588;53.702;10.208;2023-04-24T05:40:38;2.40;;;1.43;;
64894;SDS011;51588;53.702;10.208;2023-04-24T05:43:04;1.80;;;1.70;;
64894;SDS011;51588;53.702;10.208;2023-04-24T05:45:31;5.63;;;1.90;;
64894;SDS011;51588;53.702;10.208;2023-04-24T05:47:57;2.00;;;1.80;;
64894;SDS011;51588;53.702;10.208;2023-04-24T05:50:23;2.70;;;2.10;;
64894;SDS011;51588;53.702;10.208;2023-04-24T05:52:50;11.37;;;3.50;;
64894;SDS011;51588;53.702;10.208;2023-04-24T05:55:16;11.50;;;3.03;;
64894;SDS011;51588;53.702;10.208;2023-04-24T05:57:44;17.63;;;3.70;;
64894;SDS011;51588;53.702;10.208;2023-04-24T06:00:11;21.73;;;4.50;;
64894;SDS011;51588;53.702;10.208;2023-04-24T06:02:38;20.00;;;4.60;;
64894;SDS011;51588;53.702;10.208;2023-04-24T06:05:04;16.57;;;5.10;;
64894;SDS011;51588;53.702;10.208;2023-04-24T06:07:31;19.80;;;4.90;;
64894;SDS011;51588;53.702;10.208;2023-04-24T06:09:57;14.00;;;4.70;;
64894;SDS011;51588;53.702;10.208;2023-04-24T06:12:24;13.20;;;3.87;;
64894;SDS011;51588;53.702;10.208;2023-04-24T06:14:53;15.53;;;4.03;;
64894;SDS011;51588;53.702;10.208;2023-04-24T06:17:20;14.97;;;3.60;;
64894;SDS011;51588;53.702;10.208;2023-04-24T06:19:47;11.83;;;3.30;;
64894;SDS011;51588;53.702;10.208;2023-04-24T06:22:13;16.47;;;4.00;;
64894;SDS011;51588;53.702;10.208;2023-04-24T06:24:40;8.30;;;2.90;;
64894;SDS011;51588;53.702;10.208;2023-04-24T06:27:06;7.80;;;3.53;;
64894;SDS011;51588;53.702;10.208;2023-04-24T06:29:33;10.60;;;3.17;;
64894;SDS011;51588;53.702;10.208;2023-04-24T06:32:01;7.30;;;2.90;;
64894;SDS011;51588;53.702;10.208;2023-04-24T06:34:27;9.90;;;3.23;;
64894;SDS011;51588;53.702;10.208;2023-04-24T06:36:55;7.57;;;2.50;;
64894;SDS011;51588;53.702;10.208;2023-04-24T06:39:22;9.63;;;3.10;;
64894;SDS011;51588;53.702;10.208;2023-04-24T06:41:48;11.03;;;3.07;;
64894;SDS011;51588;53.702;10.208;2023-04-24T06:44:15;8.70;;;3.00;;
64894;SDS011;51588;53.702;10.208;2023-04-24T06:46:41;10.03;;;2.43;;
64894;SDS011;51588;53.702;10.208;2023-04-24T06:49:09;7.40;;;3.17;;
64894;SDS011;51588;53.702;10.208;2023-04-24T06:51:36;7.97;;;2.90;;
64894;SDS011;51588;53.702;10.208;2023-04-24T06:54:02;8.77;;;2.90;;
64894;SDS011;51588;53.702;10.208;2023-04-24T06:56:28;6.53;;;3.17;;
64894;SDS011;51588;53.702;10.208;2023-04-24T06:58:55;15.70;;;3.00;;
64894;SDS011;51588;53.702;10.208;2023-04-24T07:01:21;5.47;;;2.73;;
64894;SDS011;51588;53.702;10.208;2023-04-24T07:03:48;10.53;;;2.83;;
64894;SDS011;51588;53.702;10.208;2023-04-24T07:06:16;8.23;;;2.67;;
64894;SDS011;51588;53.702;10.208;2023-04-24T07:08:43;17.03;;;3.10;;
64894;SDS011;51588;53.702;10.208;2023-04-24T07:11:10;9.60;;;3.30;;
64894;SDS011;51588;53.702;10.208;2023-04-24T07:13:36;6.87;;;2.80;;
64894;SDS011;51588;53.702;10.208;2023-04-24T07:16:06;6.07;;;2.20;;
64894;SDS011;51588;53.702;10.208;2023-04-24T07:18:33;9.23;;;3.30;;
64894;SDS011;51588;53.702;10.208;2023-04-24T07:20:59;9.50;;;2.20;;
64894;SDS011;51588;53.702;10.208;2023-04-24T07:23:27;5.90;;;2.20;;
64894;SDS011;51588;53.702;10.208;2023-04-24T07:25:53;5.97;;;2.43;;
64894;SDS011;51588;53.702;10.208;2023-04-24T07:28:20;8.10;;;2.10;;
64894;SDS011;51588;53.702;10.208;2023-04-24T07:30:46;8.60;;;2.00;;
64894;SDS011;51588;53.702;10.208;2023-04-24T07:33:13;7.73;;;1.93;;
64894;SDS011;51588;53.702;10.208;2023-04-24T07:35:39;5.10;;;2.40;;
64894;SDS011;51588;53.702;10.208;2023-04-24T07:38:06;12.70;;;2.40;;
64894;SDS011;51588;53.702;10.208;2023-04-24T07:40:33;3.90;;;2.20;;
64894;SDS011;51588;53.702;10.208;2023-04-24T07:43:00;7.23;;;2.20;;
64894;SDS011;51588;53.702;10.208;2023-04-24T07:45:26;4.13;;;2.00;;
64894;SDS011;51588;53.702;10.208;2023-04-24T07:47:53;4.87;;;2.07;;
64894;SDS011;51588;53.702;10.208;2023-04-24T07:50:19;6.23;;;1.87;;
64894;SDS011;51588;53.702;10.208;2023-04-24T07:52:46;4.20;;;2.20;;
64894;SDS011;51588;53.702;10.208;2023-04-24T07:55:12;4.57;;;1.90;;
64894;SDS011;51588;53.702;10.208;2023-04-24T07:57:40;4.83;;;1.80;;
64894;SDS011;51588;53.702;10.208;2023-04-24T08:00:07;5.60;;;1.83;;
64894;SDS011;51588;53.702;10.208;2023-04-24T08:02:34;3.73;;;1.70;;
64894;SDS011;51588;53.702;10.208;2023-04-24T08:05:00;8.80;;;2.10;;
64894;SDS011;51588;53.702;10.208;2023-04-24T08:07:28;4.10;;;2.00;;
64894;SDS011;51588;53.702;10.208;2023-04-24T08:09:54;4.20;;;1.67;;
64894;SDS011;51588;53.702;10.208;2023-04-24T08:12:21;3.87;;;1.63;;
64894;SDS011;51588;53.702;10.208;2023-04-24T08:14:49;3.83;;;1.83;;
64894;SDS011;51588;53.702;10.208;2023-04-24T08:17:16;3.50;;;2.07;;
64894;SDS011;51588;53.702;10.208;2023-04-24T08:19:42;7.50;;;2.00;;
64894;SDS011;51588;53.702;10.208;2023-04-24T08:22:13;6.60;;;1.97;;
64894;SDS011;51588;53.702;10.208;2023-04-24T08:24:39;3.33;;;2.00;;
64894;SDS011;51588;53.702;10.208;2023-04-24T08:27:06;7.20;;;2.00;;
64894;SDS011;51588;53.702;10.208;2023-04-24T08:29:32;6.20;;;2.20;;
64894;SDS011;51588;53.702;10.208;2023-04-24T08:32:03;6.73;;;2.63;;
64894;SDS011;51588;53.702;10.208;2023-04-24T08:34:29;4.60;;;2.30;;
64894;SDS011;51588;53.702;10.208;2023-04-24T08:36:56;5.83;;;2.20;;
64894;SDS011;51588;53.702;10.208;2023-04-24T08:39:22;5.03;;;2.70;;
64894;SDS011;51588;53.702;10.208;2023-04-24T08:41:48;4.37;;;2.13;;
64894;SDS011;51588;53.702;10.208;2023-04-24T08:44:16;5.80;;;2.37;;
64894;SDS011;51588;53.702;10.208;2023-04-24T08:46:43;4.47;;;2.03;;
64894;SDS011;51588;53.702;10.208;2023-04-24T08:49:12;4.70;;;1.80;;
64894;SDS011;51588;53.702;10.208;2023-04-24T08:51:41;6.63;;;2.00;;
64894;SDS011;51588;53.702;10.208;2023-04-24T08:54:07;2.63;;;1.90;;
64894;SDS011;51588;53.702;10.208;2023-04-24T08:56:34;8.13;;;2.30;;
64894;SDS011;51588;53.702;10.208;2023-04-24T08:59:04;3.70;;;2.00;;
64894;SDS011;51588;53.702;10.208;2023-04-24T09:01:31;6.73;;;2.20;;
64894;SDS011;51588;53.702;10.208;2023-04-24T09:03:58;5.30;;;2.30;;
64894;SDS011;51588;53.702;10.208;2023-04-24T09:06:27;3.60;;;2.13;;
64894;SDS011;51588;53.702;10.208;2023-04-24T09:08:54;2.80;;;2.17;;
64894;SDS011;51588;53.702;10.208;2023-04-24T09:11:21;5.63;;;2.40;;
64894;SDS011;51588;53.702;10.208;2023-04-24T09:13:49;4.37;;;2.47;;
64894;SDS011;51588;53.702;10.208;2023-04-24T09:16:15;4.60;;;2.20;;
64894;SDS011;51588;53.702;10.208;2023-04-24T09:18:42;2.93;;;2.00;;
64894;SDS011;51588;53.702;10.208;2023-04-24T09:21:09;7.70;;;2.30;;
64894;SDS011;51588;53.702;10.208;2023-04-24T09:23:37;2.53;;;1.90;;
64894;SDS011;51588;53.702;10.208;2023-04-24T09:26:03;4.00;;;2.00;;
64894;SDS011;51588;53.702;10.208;2023-04-24T09:28:35;4.27;;;2.20;;
64894;SDS011;51588;53.702;10.208;2023-04-24T09:31:02;4.77;;;2.40;;
64894;SDS011;51588;53.702;10.208;2023-04-24T09:33:29;2.33;;;2.03;;
64894;SDS011;51588;53.702;10.208;2023-04-24T09:35:56;7.20;;;2.50;;
64894;SDS011;51588;53.702;10.208;2023-04-24T09:38:30;4.37;;;2.20;;
64894;SDS011;51588;53.702;10.208;2023-04-24T09:41:00;4.97;;;2.47;;
64894;SDS011;51588;53.702;10.208;2023-04-24T09:43:27;3.00;;;2.30;;
64894;SDS011;51588;53.702;10.208;2023-04-24T09:45:55;4.57;;;2.23;;
64894;SDS011;51588;53.702;10.208;2023-04-24T09:48:29;2.63;;;2.43;;
64894;SDS011;51588;53.702;10.208;2023-04-24T09:50:59;3.30;;;2.20;;
64894;SDS011;51588;53.702;10.208;2023-04-24T09:53:26;2.37;;;1.90;;
64894;SDS011;51588;53.702;10.208;2023-04-24T09:55:53;2.93;;;2.03;;
64894;SDS011;51588;53.702;10.208;2023-04-24T09:58:25;2.17;;;1.97;;
64894;SDS011;51588;53.702;10.208;2023-04-24T10:00:55;2.37;;;1.90;;
64894;SDS011;51588;53.702;10.208;2023-04-24T10:03:23;4.30;;;2.07;;
64894;SDS011;51588;53.702;10.208;2023-04-24T10:05:51;3.13;;;2.70;;
64894;SDS011;51588;53.702;10.208;2023-04-24T10:08:17;4.83;;;2.40;;
64894;SDS011;51588;53.702;10.208;2023-04-24T10:10:44;5.87;;;2.20;;
64894;SDS011;51588;53.702;10.208;2023-04-24T10:13:12;16.43;;;2.30;;
64894;SDS011;51588;53.702;10.208;2023-04-24T10:15:40;4.83;;;2.00;;
64894;SDS011;51588;53.702;10.208;2023-04-24T10:18:07;6.63;;;2.23;;
64894;SDS011;51588;53.702;10.208;2023-04-24T10:20:34;11.73;;;2.50;;
64894;SDS011;51588;53.702;10.208;2023-04-24T10:23:01;5.77;;;2.73;;
64894;SDS011;51588;53.702;10.208;2023-04-24T10:25:28;4.17;;;2.30;;
64894;SDS011;51588;53.702;10.208;2023-04-24T10:27:55;3.13;;;2.10;;
64894;SDS011;51588;53.702;10.208;2023-04-24T10:30:24;5.63;;;3.00;;
64894;SDS011;51588;53.702;10.208;2023-04-24T10:32:52;7.93;;;2.73;;
64894;SDS011;51588;53.702;10.208;2023-04-24T10:35:19;5.67;;;3.33;;
64894;SDS011;51588;53.702;10.208;2023-04-24T10:37:48;2.60;;;2.40;;
64894;SDS011;51588;53.702;10.208;2023-04-24T10:40:16;4.60;;;2.50;;
64894;SDS011;51588;53.702;10.208;2023-04-24T10:42:43;4.97;;;2.80;;
64894;SDS011;51588;53.702;10.208;2023-04-24T10:45:16;3.17;;;2.87;;
64894;SDS011;51588;53.702;10.208;2023-04-24T10:47:51;5.50;;;2.60;;
64894;SDS011;51588;53.702;10.208;2023-04-24T10:50:18;5.00;;;2.70;;
64894;SDS011;51588;53.702;10.208;2023-04-24T10:52:45;10.30;;;3.97;;
64894;SDS011;51588;53.702;10.208;2023-04-24T10:55:12;6.30;;;2.60;;
64894;SDS011;51588;53.702;10.208;2023-04-24T10:57:38;3.90;;;2.53;;
64894;SDS011;51588;53.702;10.208;2023-04-24T11:00:21;4.57;;;2.77;;
64894;SDS011;51588;53.702;10.208;2023-04-24T11:02:48;4.93;;;2.70;;
64894;SDS011;51588;53.702;10.208;2023-04-24T11:05:19;2.97;;;2.73;;
64894;SDS011;51588;53.702;10.208;2023-04-24T11:10:30;8.47;;;2.77;;
64894;SDS011;51588;53.702;10.208;2023-04-24T11:12:57;3.73;;;2.70;;
64894;SDS011;51588;53.702;10.208;2023-04-24T11:15:23;3.03;;;2.73;;
64894;SDS011;51588;53.702;10.208;2023-04-24T11:17:49;4.07;;;2.60;;
64894;SDS011;51588;53.702;10.208;2023-04-24T11:20:23;4.70;;;3.17;;
64894;SDS011;51588;53.702;10.208;2023-04-24T11:22:50;6.10;;;2.50;;
64894;SDS011;51588;53.702;10.208;2023-04-24T11:25:19;11.27;;;2.87;;
64894;SDS011;51588;53.702;10.208;2023-04-24T11:27:47;4.83;;;3.03;;
64894;SDS011;51588;53.702;10.208;2023-04-24T11:30:17;9.70;;;3.40;;
64894;SDS011;51588;53.702;10.208;2023-04-24T11:32:47;7.50;;;3.20;;
64894;SDS011;51588;53.702;10.208;2023-04-24T11:35:15;3.57;;;2.63;;
64894;SDS011;51588;53.702;10.208;2023-04-24T11:37:43;3.43;;;3.00;;
64894;SDS011;51588;53.702;10.208;2023-04-24T11:40:11;5.20;;;4.70;;
64894;SDS011;51588;53.702;10.208;2023-04-24T11:42:39;5.37;;;4.60;;
64894;SDS011;51588;53.702;10.208;2023-04-24T11:45:09;5.90;;;5.30;;
64894;SDS011;51588;53.702;10.208;2023-04-24T11:47:36;6.43;;;5.50;;
64894;SDS011;51588;53.702;10.208;2023-04-24T11:50:03;8.90;;;5.10;;
64894;SDS011;51588;53.702;10.208;2023-04-24T11:52:29;5.40;;;4.30;;
64894;SDS011;51588;53.702;10.208;2023-04-24T11:54:57;6.00;;;4.80;;
64894;SDS011;51588;53.702;10.208;2023-04-24T11:57:27;4.60;;;4.07;;
64894;SDS011;51588;53.702;10.208;2023-04-24T12:00:02;4.50;;;4.10;;
64894;SDS011;51588;53.702;10.208;2023-04-24T12:02:29;8.60;;;4.10;;
64894;SDS011;51588;53.702;10.208;2023-04-24T12:04:55;6.50;;;3.90;;
64894;SDS011;51588;53.702;10.208;2023-04-24T12:07:22;4.20;;;3.80;;
64894;SDS011;51588;53.702;10.208;2023-04-24T12:09:54;7.00;;;4.17;;
64894;SDS011;51588;53.702;10.208;2023-04-24T12:12:23;3.90;;;3.60;;
64894;SDS011;51588;53.702;10.208;2023-04-24T12:14:52;5.27;;;3.57;;
64894;SDS011;51588;53.702;10.208;2023-04-24T12:17:23;4.53;;;3.70;;
64894;SDS011;51588;53.702;10.208;2023-04-24T12:19:50;4.23;;;3.43;;
64894;SDS011;51588;53.702;10.208;2023-04-24T12:22:16;4.03;;;3.60;;
64894;SDS011;51588;53.702;10.208;2023-04-24T12:24:56;3.97;;;3.50;;
64894;SDS011;51588;53.702;10.208;2023-04-24T12:27:24;4.63;;;3.37;;
64894;SDS011;51588;53.702;10.208;2023-04-24T12:29:53;4.00;;;3.60;;
64894;SDS011;51588;53.702;10.208;2023-04-24T12:32:20;4.57;;;3.13;;
64894;SDS011;51588;53.702;10.208;2023-04-24T12:34:47;5.83;;;3.30;;
64894;SDS011;51588;53.702;10.208;2023-04-24T12:37:13;3.50;;;3.20;;
64894;SDS011;51588;53.702;10.208;2023-04-24T12:39:42;6.87;;;3.50;;
64894;SDS011;51588;53.702;10.208;2023-04-24T12:42:13;6.67;;;3.83;;
64894;SDS011;51588;53.702;10.208;2023-04-24T12:44:41;4.37;;;3.60;;
64894;SDS011;51588;53.702;10.208;2023-04-24T12:47:07;3.57;;;3.23;;
64894;SDS011;51588;53.702;10.208;2023-04-24T12:49:35;8.83;;;3.53;;
64894;SDS011;51588;53.702;10.208;2023-04-24T12:52:01;4.20;;;3.70;;
64894;SDS011;51588;53.702;10.208;2023-04-24T12:54:33;8.83;;;3.40;;
64894;SDS011;51588;53.702;10.208;2023-04-24T12:57:00;8.23;;;3.43;;
64894;SDS011;51588;53.702;10.208;2023-04-24T12:59:26;8.13;;;3.67;;
64894;SDS011;51588;53.702;10.208;2023-04-24T13:01:54;8.93;;;3.30;;
64894;SDS011;51588;53.702;10.208;2023-04-24T13:04:20;5.70;;;3.50;;
64894;SDS011;51588;53.702;10.208;2023-04-24T13:06:47;4.10;;;3.40;;
64894;SDS011;51588;53.702;10.208;2023-04-24T13:09:13;8.67;;;3.40;;
64894;SDS011;51588;53.702;10.208;2023-04-24T13:11:40;6.80;;;3.40;;
64894;SDS011;51588;53.702;10.208;2023-04-24T13:14:12;5.17;;;3.13;;
64894;SDS011;51588;53.702;10.208;2023-04-24T13:16:39;3.90;;;3.60;;
64894;SDS011;51588;53.702;10.208;2023-04-24T13:19:06;4.93;;;3.83;;
64894;SDS011;51588;53.702;10.208;2023-04-24T13:21:33;3.60;;;3.20;;
64894;SDS011;51588;53.702;10.208;2023-04-24T13:23:59;3.80;;;3.37;;
64894;SDS011;51588;53.702;10.208;2023-04-24T13:26:26;3.83;;;2.83;;
64894;SDS011;51588;53.702;10.208;2023-04-24T13:28:52;3.40;;;3.10;;
64894;SDS011;51588;53.702;10.208;2023-04-24T13:31:19;9.17;;;3.17;;
64894;SDS011;51588;53.702;10.208;2023-04-24T13:33:45;3.57;;;3.27;;
64894;SDS011;51588;53.702;10.208;2023-04-24T13:36:13;3.63;;;3.30;;
64894;SDS011;51588;53.702;10.208;2023-04-24T13:38:39;4.17;;;3.50;;
64894;SDS011;51588;53.702;10.208;2023-04-24T13:41:05;6.17;;;3.40;;
64894;SDS011;51588;53.702;10.208;2023-04-24T13:43:32;4.30;;;3.03;;
64894;SDS011;51588;53.702;10.208;2023-04-24T13:45:58;3.23;;;2.90;;
64894;SDS011;51588;53.702;10.208;2023-04-24T13:48:27;3.20;;;2.90;;
64894;SDS011;51588;53.702;10.208;2023-04-24T13:50:54;4.23;;;3.10;;
64894;SDS011;51588;53.702;10.208;2023-04-24T13:53:21;3.40;;;3.10;;
64894;SDS011;51588;53.702;10.208;2023-04-24T13:55:48;3.63;;;2.80;;
64894;SDS011;51588;53.702;10.208;2023-04-24T13:58:14;4.43;;;3.57;;
64894;SDS011;51588;53.702;10.208;2023-04-24T14:00:41;3.07;;;2.80;;
64894;SDS011;51588;53.702;10.208;2023-04-24T14:03:07;7.37;;;3.17;;
64894;SDS011;51588;53.702;10.208;2023-04-24T14:05:33;3.27;;;2.97;;
64894;SDS011;51588;53.702;10.208;2023-04-24T14:08:00;4.53;;;3.07;;
64894;SDS011;51588;53.702;10.208;2023-04-24T14:10:28;4.47;;;3.10;;
64894;SDS011;51588;53.702;10.208;2023-04-24T14:12:54;4.03;;;3.10;;
64894;SDS011;51588;53.702;10.208;2023-04-24T14:15:21;4.20;;;2.70;;
64894;SDS011;51588;53.702;10.208;2023-04-24T14:17:47;3.50;;;2.70;;
64894;SDS011;51588;53.702;10.208;2023-04-24T14:20:14;6.33;;;2.90;;
64894;SDS011;51588;53.702;10.208;2023-04-24T14:22:40;3.40;;;3.10;;
64894;SDS011;51588;53.702;10.208;2023-04-24T14:25:07;3.50;;;3.13;;
64894;SDS011;51588;53.702;10.208;2023-04-24T14:27:35;5.20;;;3.00;;
64894;SDS011;51588;53.702;10.208;2023-04-24T14:30:01;12.23;;;3.27;;
64894;SDS011;51588;53.702;10.208;2023-04-24T14:32:28;6.80;;;2.83;;
64894;SDS011;51588;53.702;10.208;2023-04-24T14:34:54;4.50;;;3.17;;